EmailTwitter


Observations de surface / France / LFPO (07149)

Régions: Québec | Canada | États-Unis | Europe | France | UK | Ailleurs
Station
Affichage
Infos & localisation pour LFPO (07149) | Aide pour décoder les METARs

Observations prises le 2019-12-16 à 01H30 UTC à PARIS/ORLY, FR (LFPO)

Etat du ciel: partiellement nuageux.

Température: 9.0 Celsius

Point de rosée: 7.0 Celsius

Humidité relative: 87%

Vents: Sud à 11 km/h ou 6 noeuds.

Pression au niveau moyen de la mer: 100.60 kilopascals.

Visibilité horizontale: 6.21 milles terrestres ou 9.94 kilomètres.

Hauteur du plafond: 1829 mètres ( 6000 pieds ).

Observation METAR:

LFPO 160130Z 18006KT 150V210 9999 SCT009 BKN060 09/07 Q1006 TEMPO BKN008=